Time;durP1;ratioP1;P1;durP2;ratioP2;P2;SDS_P1;SDS_P2;PMS_P1;PMS_P2;Temp;Humidity;BMP_temperature;BMP_pressure;BME280_temperature;BME280_humidity;BME280_pressure;Samples;Min_cycle;Max_cycle;Signal;HPM_P1;HPM_P2
2022/09/24 00:02:18;;;;;;;37.50;30.40;;;;;;;7.16;81.49;99597.30;444350;1274;142581;-63
2022/09/24 00:12:25;;;;;;;41.20;29.80;;;;;;;7.26;81.32;99595.95;440593;1274;144135;-62
2022/09/24 00:22:33;;;;;;;40.70;29.80;;;;;;;7.35;81.20;99580.02;446716;1273;201409;-63
2022/09/24 00:32:39;;;;;;;39.10;30.70;;;;;;;7.40;81.26;99571.71;445802;1275;145419;-63
2022/09/24 00:42:45;;;;;;;29.20;22.50;;;;;;;7.45;81.15;99560.35;446619;1276;144538;-63
2022/09/24 00:52:58;;;;;;;29.20;22.10;;;;;;;7.50;81.13;99550.52;446884;1274;143183;-63
2022/09/24 01:03:08;;;;;;;28.80;21.40;;;;;;;7.55;80.98;99547.11;446576;1275;144085;-63
2022/09/24 01:13:25;;;;;;;21.40;17.00;;;;;;;7.56;81.02;99537.98;446636;1275;142998;-62
2022/09/24 01:23:56;;;;;;;22.70;19.00;;;;;;;7.59;80.86;99529.47;446164;1274;144704;-66
2022/09/24 01:34:05;;;;;;;25.10;22.20;;;;;;;7.59;80.87;99529.50;446867;1274;142772;-62
2022/09/24 01:44:12;;;;;;;24.40;18.50;;;;;;;7.59;81.10;99529.66;446114;1274;144020;-63
2022/09/24 01:54:23;;;;;;;26.10;18.10;;;;;;;7.55;81.18;99520.44;446444;1275;143848;-62
2022/09/24 02:04:31;;;;;;;24.50;16.70;;;;;;;7.53;81.04;99516.17;446604;1275;142710;-63
2022/09/24 02:14:42;;;;;;;19.70;15.80;;;;;;;7.53;80.93;99507.87;445619;1275;143361;-62
2022/09/24 02:24:51;;;;;;;16.10;13.00;;;;;;;7.56;80.61;99498.11;446817;1274;144691;-62
2022/09/24 02:35:01;;;;;;;20.30;16.00;;;;;;;7.62;80.69;99499.91;446287;1275;144033;-62
2022/09/24 02:45:09;;;;;;;16.20;13.70;;;;;;;7.64;81.23;99498.55;443797;1274;142160;-62
2022/09/24 02:55:15;;;;;;;19.50;14.40;;;;;;;7.61;80.77;99493.83;446626;1275;142541;-62
2022/09/24 03:05:21;;;;;;;22.20;18.70;;;;;;;7.59;80.82;99489.26;445800;1275;143207;-61
2022/09/24 03:15:28;;;;;;;22.80;14.40;;;;;;;7.57;80.69;99478.71;446329;1274;142235;-61
2022/09/24 03:25:34;;;;;;;16.30;12.90;;;;;;;7.57;80.71;99478.54;446262;1275;142530;-62
2022/09/24 03:35:41;;;;;;;15.60;13.00;;;;;;;7.57;80.44;99471.59;445555;1274;143644;-62
2022/09/24 03:45:47;;;;;;;14.60;12.50;;;;;;;7.60;80.30;99469.84;446975;1273;142025;-62
2022/09/24 03:55:56;;;;;;;16.40;13.20;;;;;;;7.65;80.28;99470.99;445320;1273;141541;-62
2022/09/24 04:06:02;;;;;;;15.10;11.00;;;;;;;7.67;80.17;99484.11;446827;1273;142553;-62
2022/09/24 04:16:09;;;;;;;11.60;10.50;;;;;;;7.68;79.95;99481.27;447028;1272;151881;-63
2022/09/24 04:26:15;;;;;;;12.90;11.30;;;;;;;7.73;79.63;99476.12;446307;1271;143949;-63
2022/09/24 04:36:22;;;;;;;12.60;10.00;;;;;;;7.78;79.66;99472.58;447067;1273;143129;-62
2022/09/24 04:46:27;;;;;;;11.50;10.10;;;;;;;7.86;79.87;99469.14;442988;1272;141672;-62
2022/09/24 04:56:34;;;;;;;12.20;10.90;;;;;;;7.93;79.24;99467.02;445468;1273;143816;-62
2022/09/24 05:06:40;;;;;;;14.30;10.00;;;;;;;7.99;78.94;99464.40;446804;1274;142680;-62
2022/09/24 05:16:46;;;;;;;11.90;10.80;;;;;;;8.07;78.70;99461.39;447048;1270;144692;-62
2022/09/24 05:27:10;;;;;;;12.20;10.70;;;;;;;8.17;78.60;99457.71;446284;1271;197905;-62
2022/09/24 05:37:17;;;;;;;11.20;9.90;;;;;;;8.27;78.00;99456.59;446869;1274;146497;-62
2022/09/24 05:47:22;;;;;;;11.90;10.60;;;;;;;8.43;77.76;99453.10;446020;1274;161597;-62
2022/09/24 05:57:28;;;;;;;15.70;12.40;;;;;;;8.56;77.57;99454.30;435036;1274;146447;-62
2022/09/24 06:07:34;;;;;;;12.60;11.20;;;;;;;8.70;77.38;99458.58;446407;1273;142965;-63
2022/09/24 06:17:40;;;;;;;18.80;13.60;;;;;;;8.83;77.17;99459.76;445442;1275;143828;-62
2022/09/24 06:27:52;;;;;;;16.60;13.90;;;;;;;9.02;76.68;99461.23;446708;1274;146023;-62
2022/09/24 06:37:58;;;;;;;18.50;14.40;;;;;;;9.23;76.52;99459.84;446432;1274;187892;-63
2022/09/24 06:48:06;;;;;;;14.70;13.00;;;;;;;9.37;75.86;99460.56;446801;1272;143163;-63
2022/09/24 06:58:14;;;;;;;14.70;12.70;;;;;;;9.60;75.48;99464.41;446823;1273;142668;-63
2022/09/24 07:08:20;;;;;;;13.90;11.30;;;;;;;10.12;74.75;99454.88;445892;1274;142732;-62
2022/09/24 07:18:26;;;;;;;13.50;10.20;;;;;;;11.21;73.31;99461.30;446819;1273;144659;-61
2022/09/24 07:28:32;;;;;;;11.30;9.00;;;;;;;12.92;71.56;99460.93;446590;1275;143687;-63
2022/09/24 07:38:38;;;;;;;11.00;9.50;;;;;;;13.79;68.97;99469.93;445966;1272;143471;-62
2022/09/24 07:48:43;;;;;;;10.60;8.60;;;;;;;13.83;67.15;99477.93;446985;1273;143013;-63
2022/09/24 07:58:52;;;;;;;9.00;7.90;;;;;;;13.48;66.36;99484.52;447038;1273;142631;-62
2022/09/24 08:08:57;;;;;;;8.30;7.40;;;;;;;13.30;65.95;99482.35;445936;1273;143132;-62
2022/09/24 08:19:03;;;;;;;9.60;7.60;;;;;;;13.66;65.24;99477.08;447053;1273;143105;-63
2022/09/24 08:29:09;;;;;;;8.40;6.00;;;;;;;14.34;64.47;99476.66;446231;1273;143936;-62
2022/09/24 08:39:16;;;;;;;8.90;7.70;;;;;;;14.65;63.09;99484.05;446964;1270;144098;-62
2022/09/24 08:49:28;;;;;;;8.60;6.90;;;;;;;14.77;62.63;99484.48;446862;1272;185358;-62
2022/09/24 08:59:36;;;;;;;10.30;7.00;;;;;;;14.97;62.28;99478.17;446214;1273;144301;-62
2022/09/24 09:09:50;;;;;;;6.80;5.50;;;;;;;15.52;61.15;99477.95;447054;1272;144091;-62
2022/09/24 09:20:00;;;;;;;8.20;6.50;;;;;;;15.80;60.07;99472.96;447056;1273;142248;-62
2022/09/24 09:30:13;;;;;;;7.20;5.80;;;;;;;15.85;58.85;99472.64;447090;1272;141878;-62
2022/09/24 09:40:33;;;;;;;10.20;7.10;;;;;;;15.96;58.47;99463.23;447076;1273;144788;-63
2022/09/24 09:50:42;;;;;;;8.80;7.40;;;;;;;16.53;57.50;99464.73;446337;1271;143191;-63
2022/09/24 10:00:48;;;;;;;7.00;5.70;;;;;;;16.81;56.31;99455.98;446835;1273;143704;-63
2022/09/24 10:10:59;;;;;;;6.50;5.20;;;;;;;17.26;55.29;99452.75;446962;1273;143016;-63
2022/09/24 10:21:10;;;;;;;4.90;4.30;;;;;;;17.99;54.18;99450.25;446880;1271;144809;-62
2022/09/24 10:31:21;;;;;;;6.50;5.70;;;;;;;18.41;52.26;99443.59;447086;1270;142662;-63
2022/09/24 10:41:30;;;;;;;7.50;5.60;;;;;;;18.25;51.81;99426.56;446191;1273;142636;-63
2022/09/24 10:51:44;;;;;;;5.30;4.80;;;;;;;18.01;50.71;99426.55;447001;1270;142498;-62
2022/09/24 11:02:05;;;;;;;4.60;4.00;;;;;;;18.18;49.97;99421.55;446212;1274;142215;-61
2022/09/24 11:12:21;;;;;;;4.30;3.90;;;;;;;18.21;49.08;99415.08;436728;1273;141502;-61
2022/09/24 11:22:38;;;;;;;4.60;3.80;;;;;;;18.20;48.23;99413.00;439269;1272;141719;-62
2022/09/24 11:33:17;;;;;;;5.90;5.30;;;;;;;17.88;48.31;99404.90;441537;1273;142364;-64
2022/09/24 11:43:49;;;;;;;8.60;5.70;;;;;;;17.86;48.28;99400.20;430363;1275;142106;-61
2022/09/24 11:54:01;;;;;;;7.40;6.70;;;;;;;17.53;47.99;99401.91;429585;1275;186840;-63
2022/09/24 12:04:13;;;;;;;5.20;4.80;;;;;;;17.46;48.11;99400.46;430927;1274;141583;-62
2022/09/24 12:14:25;;;;;;;5.70;4.70;;;;;;;17.36;48.34;99398.23;445772;1275;141801;-63
2022/09/24 12:24:36;;;;;;;5.20;4.50;;;;;;;17.41;48.04;99393.14;444076;1274;141697;-62
2022/09/24 12:34:49;;;;;;;4.30;3.80;;;;;;;17.54;47.87;99386.59;429748;1275;144633;-61
2022/09/24 12:44:59;;;;;;;4.80;3.70;;;;;;;17.71;47.47;99376.82;434416;1275;141681;-62
2022/09/24 12:55:18;;;;;;;4.90;3.10;;;;;;;17.32;46.89;99373.13;436714;1275;142033;-62
2022/09/24 13:05:33;;;;;;;4.40;3.20;;;;;;;17.07;47.28;99371.57;436171;1273;142080;-62
2022/09/24 13:15:43;;;;;;;4.90;3.70;;;;;;;16.66;47.70;99374.64;434878;1275;141616;-62
2022/09/24 13:25:57;;;;;;;5.90;4.10;;;;;;;16.05;48.35;99368.02;431126;1275;142534;-62
2022/09/24 13:36:11;;;;;;;7.80;5.00;;;;;;;15.84;48.77;99369.66;431805;1275;145165;-63
2022/09/24 13:46:20;;;;;;;7.70;5.30;;;;;;;15.77;48.73;99358.65;438491;1274;144434;-61
2022/09/24 13:56:26;;;;;;;10.80;4.80;;;;;;;15.92;49.25;99350.96;435373;1273;141995;-63
2022/09/24 14:06:37;;;;;;;6.20;4.30;;;;;;;15.96;48.98;99349.05;433379;1274;198226;-62
2022/09/24 14:16:43;;;;;;;6.10;3.30;;;;;;;16.02;49.35;99335.48;435715;1274;145143;-62
2022/09/24 14:26:53;;;;;;;6.40;4.10;;;;;;;15.94;49.17;99327.16;430296;1274;187013;-68
2022/09/24 14:37:08;;;;;;;5.00;4.50;;;;;;;15.80;49.38;99317.94;433292;1274;142504;-68
2022/09/24 14:47:27;;;;;;;11.10;5.40;;;;;;;15.65;49.72;99319.60;442479;1276;142823;-67
2022/09/24 14:57:38;;;;;;;3.80;3.50;;;;;;;15.56;49.92;99323.64;437764;1274;146552;-68
2022/09/24 15:07:53;;;;;;;7.70;3.50;;;;;;;15.46;49.96;99322.24;429075;1277;141303;-69
2022/09/24 15:17:59;;;;;;;9.50;5.90;;;;;;;15.26;50.21;99319.89;429008;1274;143258;-67
2022/09/24 15:28:05;;;;;;;8.20;5.20;;;;;;;15.04;51.03;99323.23;429626;1276;145620;-67
2022/09/24 15:38:15;;;;;;;5.80;4.20;;;;;;;14.79;51.83;99319.88;429575;1273;145998;-65
2022/09/24 15:48:21;;;;;;;5.80;5.20;;;;;;;14.47;52.31;99315.91;447012;1273;143207;-67
2022/09/24 15:58:27;;;;;;;10.90;7.20;;;;;;;14.20;53.01;99319.90;446710;1272;145068;-66
2022/09/24 16:08:33;;;;;;;8.10;6.30;;;;;;;14.00;53.74;99326.11;446167;1273;142971;-68
2022/09/24 16:18:39;;;;;;;5.10;4.60;;;;;;;13.80;54.13;99321.58;445028;1273;142195;-67
2022/09/24 16:28:46;;;;;;;4.90;3.90;;;;;;;13.53;54.66;99323.02;437766;1273;143310;-68
2022/09/24 16:38:52;;;;;;;6.00;5.20;;;;;;;13.18;55.12;99327.71;434693;1273;142920;-67
2022/09/24 16:48:58;;;;;;;11.10;7.90;;;;;;;12.88;55.87;99330.58;431958;1273;140769;-65
2022/09/24 16:59:04;;;;;;;8.00;7.10;;;;;;;12.66;56.67;99330.64;428514;1273;143046;-66
2022/09/24 17:19:34;;;;;;;13.70;10.30;;;;;;;12.26;58.20;99326.63;444110;1273;143036;-62
2022/09/24 17:29:41;;;;;;;15.00;13.10;;;;;;;12.04;58.89;99331.75;431683;1273;143648;-63
2022/09/24 17:39:48;;;;;;;13.90;11.90;;;;;;;11.78;59.79;99333.95;431587;1273;144273;-61
2022/09/24 17:49:54;;;;;;;14.80;12.60;;;;;;;11.57;60.50;99333.34;429742;1273;143425;-61
2022/09/24 18:00:01;;;;;;;16.30;13.90;;;;;;;11.42;61.40;99332.34;429681;1273;142705;-63
2022/09/24 18:10:08;;;;;;;21.00;14.10;;;;;;;11.24;61.88;99334.70;434770;1273;146778;-63
2022/09/24 18:20:14;;;;;;;18.90;15.00;;;;;;;11.03;62.54;99347.00;438250;1273;142995;-62
2022/09/24 18:30:20;;;;;;;23.70;17.30;;;;;;;10.79;63.26;99349.20;446720;1273;142647;-62
2022/09/24 18:40:26;;;;;;;19.40;15.60;;;;;;;10.55;64.14;99349.41;433950;1273;142769;-61
2022/09/24 18:50:33;;;;;;;17.80;15.60;;;;;;;10.30;64.80;99347.67;429642;1273;143257;-64
2022/09/24 19:00:53;;;;;;;17.60;15.50;;;;;;;10.05;65.60;99345.16;432049;1273;147807;-61
2022/09/24 19:11:06;;;;;;;24.30;19.40;;;;;;;9.85;66.38;99345.55;429717;1274;143328;-62
2022/09/24 19:21:14;;;;;;;21.50;19.20;;;;;;;9.66;66.85;99345.20;431287;1272;141909;-62
2022/09/24 19:31:22;;;;;;;22.40;17.90;;;;;;;9.45;67.32;99340.58;431253;1273;142752;-62
2022/09/24 19:41:28;;;;;;;23.40;19.50;;;;;;;9.29;67.93;99340.35;430638;1273;145080;-60
2022/09/24 19:51:35;;;;;;;22.90;19.70;;;;;;;9.23;68.12;99343.84;432481;1273;147032;-62
2022/09/24 20:01:43;;;;;;;24.50;20.60;;;;;;;9.22;68.40;99347.75;437059;1273;143085;-62
2022/09/24 20:11:49;;;;;;;22.30;20.00;;;;;;;9.15;68.62;99354.80;432729;1273;148129;-63
2022/09/24 20:21:57;;;;;;;26.20;21.50;;;;;;;9.01;68.75;99355.67;431340;1274;142598;-63
2022/09/24 20:32:02;;;;;;;;;;;;;;;8.83;69.19;99358.68;430905;1273;162858;-62
2022/09/24 20:42:08;;;;;;;24.90;21.40;;;;;;;8.63;69.27;99358.63;430329;1275;133066;-61
2022/09/24 20:52:14;;;;;;;27.30;23.20;;;;;;;8.44;69.42;99361.48;431269;1273;214351;-63
2022/09/24 21:02:20;;;;;;;24.90;22.10;;;;;;;8.26;69.72;99368.42;429889;1273;146264;-61
2022/09/24 21:12:26;;;;;;;28.80;22.90;;;;;;;8.08;70.21;99366.98;430616;1275;142893;-62
2022/09/24 21:22:33;;;;;;;25.40;22.70;;;;;;;7.91;70.71;99361.52;430465;1275;141973;-62
2022/09/24 21:32:40;;;;;;;26.30;21.60;;;;;;;7.72;71.01;99357.33;429474;1275;142421;-61
2022/09/24 21:42:47;;;;;;;29.80;24.50;;;;;;;7.55;71.32;99352.88;430356;1275;142970;-62
2022/09/24 21:52:53;;;;;;;33.90;25.90;;;;;;;7.37;71.78;99349.16;438991;1274;143611;-62
2022/09/24 22:02:58;;;;;;;27.60;24.70;;;;;;;7.19;72.26;99342.09;432351;1273;143873;-62
2022/09/24 22:13:04;;;;;;;27.70;23.30;;;;;;;7.07;72.58;99332.48;446297;1275;144687;-61
2022/09/24 22:23:11;;;;;;;29.40;26.20;;;;;;;6.96;72.95;99331.11;431161;1274;198521;-62
2022/09/24 22:43:39;;;;;;;26.10;21.60;;;;;;;6.74;73.45;99327.61;429292;1274;142647;-62
2022/09/24 22:53:45;;;;;;;27.20;23.40;;;;;;;6.55;73.81;99323.02;429949;1275;143715;-62
2022/09/24 23:03:52;;;;;;;26.60;22.20;;;;;;;6.38;74.03;99319.70;429675;1275;143156;-61
2022/09/24 23:14:01;;;;;;;26.70;23.10;;;;;;;6.08;74.18;99319.79;442833;1275;142131;-62
2022/09/24 23:24:12;;;;;;;24.10;20.50;;;;;;;5.90;74.58;99326.38;446716;1273;154121;-62
2022/09/24 23:34:19;;;;;;;23.00;18.90;;;;;;;5.75;74.97;99325.00;435346;1273;145977;-63
2022/09/24 23:44:25;;;;;;;25.80;22.70;;;;;;;5.60;75.16;99319.46;441390;1273;143811;-62
2022/09/24 23:54:31;;;;;;;28.80;23.80;;;;;;;5.67;76.54;99323.63;430109;1273;143270;-60
